Time;durP1;ratioP1;P1;durP2;ratioP2;P2;SDS_P1;SDS_P2;PMS_P1;PMS_P2;Temp;Humidity;BMP_temperature;BMP_pressure;BME280_temperature;BME280_humidity;BME280_pressure;Samples;Min_cycle;Max_cycle;Signal;HPM_P1;HPM_P2
2022/08/04 00:01:38;;;;;;;6.07;5.18;;;21.10;99.90;;;;;;5033969;28;20045;-78
2022/08/04 00:04:25;;;;;;;9.98;5.00;;;21.20;99.90;;;;;;5033887;28;20085;-78
2022/08/04 00:06:54;;;;;;;11.98;5.10;;;21.10;99.90;;;;;;5033400;28;20041;-78
2022/08/04 00:09:54;;;;;;;13.02;5.60;;;21.10;99.90;;;;;;5034150;28;20045;-78
2022/08/04 00:12:24;;;;;;;11.20;5.70;;;21.10;99.90;;;;;;5034214;28;20089;-78
2022/08/04 00:14:52;;;;;;;10.85;5.25;;;21.10;99.90;;;;;;5033251;28;20510;-78
2022/08/04 00:17:22;;;;;;;8.73;5.88;;;21.10;99.90;;;;;;5033512;28;20124;-78
2022/08/04 00:19:54;;;;;;;13.27;6.15;;;21.10;99.90;;;;;;5033356;28;20431;-78
2022/08/04 00:22:25;;;;;;;7.50;5.53;;;21.00;99.90;;;;;;5033551;28;20354;-78
2022/08/04 00:24:51;;;;;;;10.70;5.90;;;21.00;99.90;;;;;;5033713;28;20495;-78
2022/08/04 00:27:17;;;;;;;12.90;6.78;;;20.90;99.90;;;;;;5033533;28;20069;-78
2022/08/04 00:29:45;;;;;;;17.23;7.90;;;20.80;99.90;;;;;;5033707;28;20064;-77
2022/08/04 00:32:11;;;;;;;14.80;4.93;;;20.70;99.90;;;;;;5033377;28;20103;-79
2022/08/04 00:34:38;;;;;;;8.88;5.32;;;20.60;99.90;;;;;;5033608;28;20087;-77
2022/08/04 00:37:05;;;;;;;10.00;6.35;;;20.50;99.90;;;;;;5033282;28;20045;-78
2022/08/04 00:39:33;;;;;;;5.93;4.90;;;20.50;99.90;;;;;;5033313;28;20480;-79
2022/08/04 00:42:10;;;;;;;9.90;6.13;;;20.40;99.90;;;;;;5033515;28;20049;-78
2022/08/04 00:45:13;;;;;;;9.07;4.40;;;20.40;99.90;;;;;;5032315;28;20104;-78
2022/08/04 00:48:07;;;;;;;9.98;5.75;;;20.40;99.90;;;;;;5033053;28;20085;-78
2022/08/04 00:51:01;;;;;;;11.70;5.10;;;20.40;99.90;;;;;;5032864;28;20056;-78
2022/08/04 00:53:38;;;;;;;;;;;20.40;99.90;;;;;;5033414;28;20061;-78
2022/08/04 00:56:36;;;;;;;11.90;5.97;;;20.20;99.90;;;;;;5032924;28;19928;-79
2022/08/04 00:59:09;;;;;;;9.38;5.10;;;20.20;99.90;;;;;;5009968;28;20379;-78
2022/08/04 01:01:59;;;;;;;10.60;5.57;;;20.10;99.90;;;;;;5032999;28;20084;-78
2022/08/04 01:05:00;;;;;;;8.25;5.43;;;20.10;99.90;;;;;;5032427;28;20098;-79
2022/08/04 01:07:49;;;;;;;12.15;5.80;;;20.10;99.90;;;;;;5032776;28;20049;-78
2022/08/04 01:10:39;;;;;;;7.95;4.60;;;20.00;99.90;;;;;;5032755;28;20041;-79
2022/08/04 01:13:11;;;;;;;10.23;5.68;;;20.00;99.90;;;;;;5032694;28;20092;-79
2022/08/04 01:16:01;;;;;;;4.82;4.18;;;20.00;99.90;;;;;;5032838;28;20080;-78
2022/08/04 01:18:45;;;;;;;10.35;5.45;;;20.00;99.90;;;;;;5032387;28;20049;-78
2022/08/04 01:21:37;;;;;;;8.88;5.78;;;20.00;99.90;;;;;;5032760;28;20072;-75
2022/08/04 01:24:14;;;;;;;9.38;6.10;;;20.00;99.90;;;;;;5032596;28;20049;-79
2022/08/04 01:27:00;;;;;;;7.15;5.28;;;20.00;99.90;;;;;;5032517;28;20120;-78
2022/08/04 01:29:34;;;;;;;9.52;4.95;;;20.00;99.90;;;;;;5032480;28;20132;-79
2022/08/04 01:32:08;;;;;;;10.00;5.32;;;19.90;99.90;;;;;;5032725;28;20075;-78
2022/08/04 01:34:41;;;;;;;8.75;4.93;;;19.90;99.90;;;;;;5032540;28;20049;-78
2022/08/04 01:37:43;;;;;;;10.18;5.60;;;19.90;99.90;;;;;;5032658;28;20144;-78
2022/08/04 01:40:12;;;;;;;9.70;5.32;;;19.90;99.90;;;;;;5032336;28;20045;-78
2022/08/04 01:42:40;;;;;;;8.20;4.80;;;19.90;99.90;;;;;;5032380;28;20121;-78
2022/08/04 01:45:08;;;;;;;10.70;5.00;;;19.90;99.90;;;;;;5032225;28;20068;-79
2022/08/04 01:47:37;;;;;;;8.00;4.72;;;19.80;99.90;;;;;;5032775;28;20049;-78
2022/08/04 01:50:12;;;;;;;8.75;5.75;;;19.90;99.90;;;;;;5032024;28;20129;-78
2022/08/04 01:52:41;;;;;;;6.53;4.22;;;19.90;99.90;;;;;;5031802;28;20128;-78
2022/08/04 01:55:09;;;;;;;7.88;5.10;;;19.80;99.90;;;;;;5032420;28;20056;-79
2022/08/04 01:57:44;;;;;;;9.63;5.05;;;20.10;99.90;;;;;;5032072;28;20122;-78
2022/08/04 02:00:21;;;;;;;6.68;4.50;;;19.80;99.90;;;;;;5032248;28;20041;-78
2022/08/04 02:02:50;;;;;;;7.22;5.00;;;19.80;99.90;;;;;;5031019;28;20104;-78
2022/08/04 02:05:18;;;;;;;8.85;5.28;;;19.80;99.90;;;;;;5030850;28;20083;-79
2022/08/04 02:07:54;;;;;;;7.55;3.97;;;19.70;99.90;;;;;;5031796;28;20045;-78
2022/08/04 02:10:28;;;;;;;6.45;4.15;;;19.80;99.90;;;;;;5030911;28;20107;-78
2022/08/04 02:13:09;;;;;;;8.60;4.80;;;19.70;99.90;;;;;;5032086;28;20065;-78
2022/08/04 02:16:14;;;;;;;9.00;6.40;;;19.70;99.90;;;;;;5035028;28;20535;-78
2022/08/04 02:18:40;;;;;;;9.68;5.38;;;19.70;99.90;;;;;;5036282;28;20045;-78
2022/08/04 02:21:06;;;;;;;5.70;4.43;;;19.60;99.90;;;;;;5035139;28;20071;-78
2022/08/04 02:23:36;;;;;;;7.55;5.88;;;19.60;99.90;;;;;;5035736;28;20041;-78
2022/08/04 02:26:04;;;;;;;9.50;6.05;;;19.60;99.90;;;;;;5036039;28;20168;-78
2022/08/04 02:28:45;;;;;;;9.20;5.78;;;19.50;99.90;;;;;;5035813;28;20125;-78
2022/08/04 02:31:19;;;;;;;9.00;5.40;;;19.50;99.90;;;;;;5034427;28;20510;-79
2022/08/04 02:33:54;;;;;;;6.25;5.43;;;19.50;99.90;;;;;;5035749;28;20053;-78
2022/08/04 02:36:29;;;;;;;9.13;5.63;;;19.40;99.90;;;;;;5035913;28;20044;-79
2022/08/04 02:39:03;;;;;;;8.13;4.50;;;19.40;99.90;;;;;;5035451;28;20113;-78
2022/08/04 02:41:30;;;;;;;9.02;5.10;;;19.40;99.90;;;;;;5035306;28;20056;-79
2022/08/04 02:44:03;;;;;;;9.20;4.65;;;19.40;99.90;;;;;;5035103;28;20627;-78
2022/08/04 02:46:32;;;;;;;10.90;5.50;;;19.40;99.90;;;;;;5035517;28;20046;-79
2022/08/04 02:49:02;;;;;;;10.63;5.25;;;19.40;99.90;;;;;;5035085;28;20050;-78
2022/08/04 02:51:36;;;;;;;7.57;5.65;;;19.40;99.90;;;;;;5034898;28;20046;-78
2022/08/04 02:54:04;;;;;;;9.05;4.93;;;19.40;99.90;;;;;;5034769;28;20540;-78
2022/08/04 02:56:31;;;;;;;9.02;5.65;;;19.40;99.90;;;;;;5035068;28;20045;-79
2022/08/04 02:59:00;;;;;;;9.13;5.70;;;19.30;99.90;;;;;;5035317;28;20057;-79
2022/08/04 03:01:26;;;;;;;10.65;6.38;;;19.30;99.90;;;;;;5034910;28;20136;-78
2022/08/04 03:04:17;;;;;;;7.78;4.72;;;19.30;99.90;;;;;;5035251;28;20084;-78
2022/08/04 03:06:58;;;;;;;6.90;4.55;;;19.30;99.90;;;;;;5034739;28;20053;-78
2022/08/04 03:09:38;;;;;;;9.68;5.50;;;19.30;99.90;;;;;;5034965;28;20046;-78
2022/08/04 03:12:22;;;;;;;10.27;5.13;;;19.30;99.90;;;;;;5034802;28;20135;-79
2022/08/04 03:15:02;;;;;;;7.22;4.75;;;19.40;99.90;;;;;;5034745;28;20052;-78
2022/08/04 03:17:58;;;;;;;9.35;5.15;;;19.30;99.90;;;;;;5034733;28;20103;-78
2022/08/04 03:20:38;;;;;;;8.57;5.63;;;19.30;99.90;;;;;;5034717;28;20049;-78
2022/08/04 03:23:39;;;;;;;8.80;5.13;;;19.30;99.90;;;;;;5034786;28;20046;-78
2022/08/04 03:26:36;;;;;;;9.23;5.63;;;19.30;99.90;;;;;;5032656;28;20049;-78
2022/08/04 03:29:42;;;;;;;9.27;5.13;;;19.30;99.90;;;;;;5033474;28;20056;-79
2022/08/04 03:32:11;;;;;;;10.07;5.18;;;19.20;99.90;;;;;;5034534;28;20513;-78
2022/08/04 03:35:01;;;;;;;5.70;4.97;;;19.20;99.90;;;;;;5034419;28;20041;-78
2022/08/04 03:37:48;;;;;;;5.97;4.18;;;19.20;99.90;;;;;;5034274;28;20124;-79
2022/08/04 03:40:32;;;;;;;6.93;4.70;;;19.20;99.90;;;;;;5034082;28;20480;-78
2022/08/04 03:43:16;;;;;;;7.35;4.43;;;19.20;99.90;;;;;;5032905;28;20052;-79
2022/08/04 03:45:48;;;;;;;6.95;4.63;;;19.30;99.90;;;;;;5034120;28;20037;-78
2022/08/04 03:48:35;;;;;;;8.55;5.15;;;19.20;99.90;;;;;;5033328;28;20113;-78
2022/08/04 03:54:26;;;;;;;8.63;5.22;;;19.30;99.90;;;;;;5033995;28;20092;-78
2022/08/04 03:57:28;;;;;;;13.18;5.07;;;19.20;99.90;;;;;;5033915;28;20500;-79
2022/08/04 04:00:14;;;;;;;7.15;4.78;;;19.30;99.90;;;;;;5034530;28;20049;-78
2022/08/04 04:03:11;;;;;;;11.25;5.97;;;19.20;99.90;;;;;;5034151;28;20048;-79
2022/08/04 04:05:43;;;;;;;7.20;4.95;;;19.20;99.90;;;;;;5033721;28;20124;-79
2022/08/04 04:08:33;;;;;;;9.05;4.95;;;19.10;99.90;;;;;;5033507;28;20544;-79
2022/08/04 04:11:40;;;;;;;10.98;5.80;;;19.10;99.90;;;;;;5033604;28;20037;-79
2022/08/04 04:14:37;;;;;;;6.70;4.70;;;19.10;99.90;;;;;;5024550;28;20061;-78
2022/08/04 04:17:06;;;;;;;11.15;6.47;;;19.20;99.90;;;;;;5033946;28;20465;-78
2022/08/04 04:20:12;;;;;;;12.48;6.78;;;19.20;99.90;;;;;;5033892;28;20049;-78
2022/08/04 04:23:24;;;;;;;12.38;6.38;;;19.30;99.90;;;;;;5033758;28;20115;-79
2022/08/04 04:26:27;;;;;;;11.35;6.80;;;19.30;99.90;;;;;;5033827;28;20384;-79
2022/08/04 04:29:19;;;;;;;9.55;5.53;;;19.30;99.90;;;;;;5033539;28;20163;-78
2022/08/04 04:32:18;;;;;;;9.77;6.18;;;19.30;99.90;;;;;;5033285;28;20052;-79
2022/08/04 04:35:00;;;;;;;8.20;5.35;;;19.30;99.90;;;;;;5033190;28;20042;-78
2022/08/04 04:37:29;;;;;;;5.13;4.20;;;19.30;99.90;;;;;;5032692;28;20406;-79
2022/08/04 04:40:16;;;;;;;7.40;4.78;;;19.40;99.90;;;;;;5033128;28;20056;-79
2022/08/04 04:43:29;;;;;;;4.70;3.33;;;19.40;99.90;;;;;;5033188;28;20131;-78
2022/08/04 04:46:08;;;;;;;9.30;5.03;;;19.50;99.90;;;;;;4971766;28;20038;-78
2022/08/04 04:48:58;;;;;;;6.25;4.25;;;19.50;99.90;;;;;;4972263;28;20050;-78
2022/08/04 04:51:39;;;;;;;5.97;3.35;;;19.50;99.90;;;;;;5015635;28;20053;-79
2022/08/04 04:54:37;;;;;;;8.55;4.82;;;19.60;99.90;;;;;;5033252;28;20108;-79
2022/08/04 04:57:22;;;;;;;11.55;6.15;;;19.60;99.90;;;;;;5032462;28;20409;-79
2022/08/04 05:00:06;;;;;;;7.85;4.00;;;19.60;99.90;;;;;;5032905;28;20041;-77
2022/08/04 05:02:48;;;;;;;9.63;5.57;;;19.70;99.90;;;;;;5032625;28;20045;-78
2022/08/04 05:05:37;;;;;;;11.17;6.63;;;19.70;99.90;;;;;;5032574;28;20042;-78
2022/08/04 05:08:15;;;;;;;8.88;5.38;;;19.70;99.90;;;;;;5032561;28;20089;-78
2022/08/04 05:10:50;;;;;;;9.77;5.72;;;19.80;99.90;;;;;;5031285;28;20049;-78
2022/08/04 05:13:32;;;;;;;6.43;4.35;;;19.90;99.90;;;;;;5032512;28;20452;-79
2022/08/04 05:16:13;;;;;;;9.23;5.28;;;20.00;99.90;;;;;;5032855;28;20129;-78
2022/08/04 05:18:44;;;;;;;9.10;6.05;;;20.00;99.90;;;;;;5032880;28;20060;-79
2022/08/04 05:21:38;;;;;;;13.18;6.50;;;20.10;99.90;;;;;;5032486;28;20053;-79
2022/08/04 05:24:09;;;;;;;11.25;6.55;;;20.30;99.90;;;;;;5027726;28;20057;-79
2022/08/04 05:26:42;;;;;;;9.23;5.32;;;20.40;99.90;;;;;;5032343;28;20041;-79
2022/08/04 05:29:15;;;;;;;;;;;20.50;99.90;;;;;;5032306;28;20127;-78
2022/08/04 05:31:48;;;;;;;14.70;7.97;;;20.60;99.90;;;;;;5032372;28;19921;-78
2022/08/04 05:34:26;;;;;;;11.93;6.85;;;20.80;99.90;;;;;;5032445;28;20049;-77
2022/08/04 05:37:01;;;;;;;13.32;7.05;;;20.90;99.90;;;;;;5032388;28;20041;-77
2022/08/04 05:39:32;;;;;;;11.18;6.82;;;21.00;99.90;;;;;;5031166;28;20049;-77
2022/08/04 05:41:58;;;;;;;9.85;6.05;;;21.00;99.90;;;;;;5032073;28;20084;-77
2022/08/04 05:44:26;;;;;;;12.95;6.97;;;21.10;99.90;;;;;;5031980;28;20053;-78
2022/08/04 05:46:55;;;;;;;10.07;5.88;;;21.10;99.90;;;;;;5031830;28;20053;-78
2022/08/04 05:49:23;;;;;;;14.32;7.43;;;21.20;99.90;;;;;;5030387;28;20100;-77
2022/08/04 05:51:50;;;;;;;8.88;6.45;;;21.20;99.90;;;;;;5031800;28;20042;-77
2022/08/04 05:54:19;;;;;;;11.13;6.15;;;21.30;99.90;;;;;;5031617;28;20128;-77
2022/08/04 05:56:46;;;;;;;7.68;5.22;;;21.40;99.90;;;;;;5032171;28;20038;-77
2022/08/04 05:59:13;;;;;;;12.15;5.80;;;21.50;99.90;;;;;;5031945;28;20369;-78
2022/08/04 06:01:40;;;;;;;7.55;5.13;;;21.60;99.90;;;;;;5032118;28;20045;-77
2022/08/04 06:04:07;;;;;;;6.38;4.35;;;21.70;99.90;;;;;;5031993;28;20049;-79
2022/08/04 06:06:34;;;;;;;8.95;5.95;;;21.70;99.90;;;;;;5032209;28;20049;-79
2022/08/04 06:09:00;;;;;;;9.77;5.53;;;21.90;99.90;;;;;;5031644;28;20041;-79
2022/08/04 06:11:28;;;;;;;8.82;5.88;;;21.90;99.90;;;;;;5031722;28;20045;-78
2022/08/04 06:13:57;;;;;;;11.85;6.25;;;22.00;99.90;;;;;;5032062;28;20049;-81
2022/08/04 06:16:25;;;;;;;12.52;5.90;;;22.10;99.90;;;;;;5032209;28;20046;-78
2022/08/04 06:18:54;;;;;;;13.75;6.05;;;22.20;99.90;;;;;;5031794;28;20112;-79
2022/08/04 06:21:22;;;;;;;10.13;5.43;;;22.30;99.90;;;;;;5031515;28;20092;-78
2022/08/04 06:23:49;;;;;;;12.35;4.97;;;22.40;99.90;;;;;;5031720;28;20049;-79
2022/08/04 06:26:18;;;;;;;10.88;5.10;;;22.50;99.90;;;;;;5031728;28;20077;-79
2022/08/04 06:28:50;;;;;;;11.50;4.32;;;22.60;99.90;;;;;;5046580;28;20067;-78
2022/08/04 06:31:31;;;;;;;11.60;4.93;;;22.80;99.90;;;;;;5046884;28;20060;-78
2022/08/04 06:34:02;;;;;;;10.18;4.93;;;22.90;99.90;;;;;;5042092;28;20236;-77
2022/08/04 06:36:30;;;;;;;8.43;4.55;;;23.20;99.90;;;;;;5044141;28;20157;-78
2022/08/04 06:38:58;;;;;;;9.70;5.05;;;23.40;99.90;;;;;;5044885;28;20053;-78
2022/08/04 06:41:24;;;;;;;9.90;4.40;;;23.60;99.90;;;;;;5047463;28;20117;-80
2022/08/04 06:43:51;;;;;;;10.10;4.80;;;23.80;99.90;;;;;;5048366;28;20089;-80
2022/08/04 06:46:18;;;;;;;7.65;4.30;;;24.00;99.90;;;;;;5033095;28;20048;-79
2022/08/04 06:48:45;;;;;;;7.97;4.32;;;24.30;99.90;;;;;;5031829;28;20049;-78
2022/08/04 06:51:13;;;;;;;7.72;5.18;;;24.80;99.90;;;;;;5030413;28;20053;-79
2022/08/04 06:53:39;;;;;;;8.38;4.53;;;25.30;99.90;;;;;;5031541;28;20112;-78
2022/08/04 06:56:07;;;;;;;10.00;4.07;;;25.70;99.90;;;;;;5031665;28;20046;-78
2022/08/04 06:58:34;;;;;;;13.98;4.82;;;26.30;99.90;;;;;;5032008;28;20045;-78
2022/08/04 07:01:01;;;;;;;8.23;4.35;;;26.90;99.90;;;;;;5032129;28;20176;-78
2022/08/04 07:03:28;;;;;;;8.77;4.85;;;26.90;99.90;;;;;;5034753;28;20049;-78
2022/08/04 07:05:54;;;;;;;5.55;3.95;;;26.80;99.90;;;;;;5034761;28;20048;-78
2022/08/04 07:08:21;;;;;;;6.38;4.00;;;26.70;99.90;;;;;;5035090;28;20053;-78
2022/08/04 07:10:47;;;;;;;8.77;4.15;;;27.00;99.90;;;;;;5034895;28;20049;-77
2022/08/04 07:13:14;;;;;;;8.40;4.45;;;27.50;99.90;;;;;;5034610;28;20126;-85
2022/08/04 07:15:44;;;;;;;8.02;4.78;;;28.00;99.90;;;;;;5034689;28;20146;-80
2022/08/04 07:18:10;;;;;;;7.35;3.90;;;28.00;99.60;;;;;;5034464;28;20056;-80
2022/08/04 07:20:43;;;;;;;7.97;3.90;;;28.20;99.90;;;;;;5034460;28;20049;-80
2022/08/04 07:23:12;;;;;;;5.47;3.80;;;28.30;99.30;;;;;;5034133;28;20045;-77
2022/08/04 07:25:39;;;;;;;7.20;3.78;;;28.60;99.30;;;;;;5033168;28;20045;-78
2022/08/04 07:28:04;;;;;;;8.50;3.50;;;29.10;99.00;;;;;;5034146;28;20441;-78
2022/08/04 07:30:31;;;;;;;6.68;4.47;;;29.60;98.00;;;;;;5033474;28;20089;-77
2022/08/04 07:32:57;;;;;;;8.80;4.13;;;30.30;97.50;;;;;;5032437;28;20400;-83
2022/08/04 07:35:25;;;;;;;8.10;3.85;;;31.00;96.60;;;;;;5033376;28;20038;-81
2022/08/04 07:37:50;;;;;;;9.63;4.20;;;31.20;95.70;;;;;;5033563;28;20176;-82
2022/08/04 07:40:16;;;;;;;8.45;3.30;;;31.30;95.30;;;;;;5033780;28;20112;-81
2022/08/04 07:42:43;;;;;;;8.70;3.55;;;31.30;94.70;;;;;;5032569;28;20048;-82
2022/08/04 07:45:10;;;;;;;5.18;3.20;;;31.90;94.60;;;;;;5033620;28;20038;-82
2022/08/04 07:47:38;;;;;;;7.03;2.92;;;32.50;93.90;;;;;;5033685;28;20053;-82
2022/08/04 07:50:07;;;;;;;6.25;3.53;;;32.80;93.40;;;;;;5032538;28;20483;-82
2022/08/04 07:52:35;;;;;;;4.88;2.80;;;33.20;93.00;;;;;;5033625;28;20082;-82
2022/08/04 07:55:02;;;;;;;8.20;3.03;;;33.20;92.30;;;;;;5032110;28;20481;-82
2022/08/04 07:57:27;;;;;;;7.20;3.03;;;33.30;91.90;;;;;;5032157;28;20049;-83
2022/08/04 07:59:53;;;;;;;6.43;2.97;;;33.40;91.60;;;;;;5033841;28;20087;-83
2022/08/04 08:02:20;;;;;;;5.82;3.33;;;33.10;91.30;;;;;;5033490;28;20099;-83
2022/08/04 08:04:46;;;;;;;11.77;3.60;;;33.00;90.90;;;;;;5032175;28;20449;-82
2022/08/04 08:07:12;;;;;;;6.07;2.83;;;33.00;90.90;;;;;;5033411;28;20167;-83
2022/08/04 08:09:38;;;;;;;7.55;2.90;;;33.40;91.20;;;;;;5033273;28;20080;-82
2022/08/04 08:12:06;;;;;;;6.05;2.80;;;33.70;90.50;;;;;;5031878;28;20112;-83
2022/08/04 08:14:33;;;;;;;7.75;3.70;;;33.70;90.00;;;;;;5033096;28;20135;-83
2022/08/04 08:17:02;;;;;;;4.78;2.67;;;33.30;90.00;;;;;;5033162;28;20045;-83
2022/08/04 08:19:29;;;;;;;8.88;3.80;;;32.90;89.90;;;;;;5032993;28;20117;-83
2022/08/04 08:21:55;;;;;;;8.23;3.10;;;32.60;89.60;;;;;;5033420;28;20046;-83
2022/08/04 08:24:21;;;;;;;4.18;2.80;;;32.20;90.00;;;;;;5032952;28;20054;-83
2022/08/04 08:26:47;;;;;;;7.20;2.60;;;32.00;90.30;;;;;;5032674;28;20127;-82
2022/08/04 08:29:14;;;;;;;7.20;3.05;;;31.90;90.50;;;;;;5033166;28;20456;-83
2022/08/04 08:31:40;;;;;;;17.67;4.10;;;31.50;90.60;;;;;;5033009;28;20045;-83
2022/08/04 08:34:07;;;;;;;4.95;2.63;;;31.60;90.70;;;;;;5033126;28;20123;-82
2022/08/04 08:36:52;;;;;;;6.43;2.70;;;31.80;90.50;;;;;;5033079;28;20046;-84
2022/08/04 08:39:33;;;;;;;3.13;2.53;;;31.90;90.00;;;;;;5032986;28;20045;-83
2022/08/04 08:42:27;;;;;;;5.93;2.63;;;31.70;90.10;;;;;;5032831;28;20092;-83
2022/08/04 08:45:29;;;;;;;7.35;2.92;;;31.80;90.20;;;;;;5033068;28;20072;-81
2022/08/04 08:48:39;;;;;;;4.75;2.55;;;31.90;89.90;;;;;;5033121;28;20091;-83
2022/08/04 08:51:11;;;;;;;6.53;3.53;;;32.10;89.80;;;;;;5032595;28;20051;-83
2022/08/04 08:54:24;;;;;;;7.57;3.05;;;32.30;90.50;;;;;;5032710;28;20068;-83
2022/08/04 08:56:59;;;;;;;9.80;3.00;;;32.60;88.50;;;;;;5001349;28;20125;-86
2022/08/04 08:59:24;;;;;;;4.95;2.85;;;33.20;88.10;;;;;;5032920;28;20124;-83
2022/08/04 09:02:12;;;;;;;9.00;2.78;;;33.50;88.90;;;;;;5031619;28;20147;-81
2022/08/04 09:05:09;;;;;;;6.85;2.67;;;33.60;86.00;;;;;;5032653;28;20053;-82
2022/08/04 09:07:56;;;;;;;6.07;2.17;;;33.80;85.60;;;;;;5033139;28;20140;-82
2022/08/04 09:10:32;;;;;;;5.32;2.92;;;34.40;84.50;;;;;;5032271;28;20435;-81
2022/08/04 09:13:07;;;;;;;5.47;3.13;;;34.60;84.30;;;;;;5032703;28;20049;-82
2022/08/04 09:15:53;;;;;;;6.85;3.20;;;34.30;84.30;;;;;;5033025;28;20041;-81
2022/08/04 09:18:44;;;;;;;5.35;2.80;;;34.00;84.60;;;;;;5033136;28;20071;-81
2022/08/04 09:21:24;;;;;;;3.55;2.60;;;33.70;84.50;;;;;;5023988;28;20053;-82
2022/08/04 09:24:07;;;;;;;9.52;3.00;;;33.60;85.10;;;;;;5030409;28;20057;-81
2022/08/04 09:26:48;;;;;;;6.35;2.63;;;33.60;85.70;;;;;;5031390;28;20072;-81
2022/08/04 09:29:35;;;;;;;4.32;3.10;;;33.80;85.90;;;;;;5031468;28;20424;-81
2022/08/04 09:32:23;;;;;;;5.72;2.88;;;33.80;86.20;;;;;;5032480;28;20129;-81
2022/08/04 09:35:08;;;;;;;7.40;3.65;;;34.00;86.40;;;;;;5001204;28;20057;-81
2022/08/04 09:37:47;;;;;;;5.85;4.05;;;33.90;88.00;;;;;;5031283;28;20111;-82
2022/08/04 09:40:50;;;;;;;6.70;3.45;;;33.90;88.00;;;;;;5032408;28;20057;-81
2022/08/04 09:43:34;;;;;;;7.07;3.40;;;33.50;85.70;;;;;;5032090;28;20135;-81
2022/08/04 09:46:17;;;;;;;4.65;2.90;;;33.20;86.50;;;;;;5030853;28;20124;-82
2022/08/04 09:48:46;;;;;;;6.97;3.08;;;33.30;85.60;;;;;;5032168;28;20041;-82
2022/08/04 09:51:35;;;;;;;6.80;3.50;;;33.20;86.10;;;;;;5014598;28;20376;-81
2022/08/04 09:54:08;;;;;;;6.20;3.47;;;33.30;86.60;;;;;;5012629;28;20049;-82
2022/08/04 09:56:36;;;;;;;6.97;2.90;;;33.50;87.30;;;;;;5032849;28;20087;-81
2022/08/04 09:59:10;;;;;;;8.50;4.45;;;33.50;87.00;;;;;;5035700;28;20528;-81
2022/08/04 10:01:38;;;;;;;6.72;3.63;;;33.50;85.20;;;;;;5035055;28;20518;-81
2022/08/04 10:04:08;;;;;;;5.93;3.92;;;33.60;86.50;;;;;;5033756;28;20409;-82
2022/08/04 10:06:49;;;;;;;7.35;3.72;;;33.40;85.70;;;;;;5032345;28;20033;-81
2022/08/04 10:09:33;;;;;;;8.27;3.80;;;33.20;86.80;;;;;;5032807;28;20130;-83
2022/08/04 10:12:31;;;;;;;5.32;3.30;;;33.20;87.30;;;;;;5031024;28;20054;-81
2022/08/04 10:15:21;;;;;;;11.95;3.97;;;33.30;86.10;;;;;;5029190;28;20065;-82
2022/08/04 10:17:53;;;;;;;7.70;4.90;;;33.60;86.30;;;;;;5030588;28;20481;-81
2022/08/04 10:20:38;;;;;;;4.50;3.17;;;33.30;85.30;;;;;;5030815;28;20050;-81
2022/08/04 10:23:22;;;;;;;5.35;2.90;;;33.20;86.20;;;;;;5031632;28;20497;-81
2022/08/04 10:26:06;;;;;;;9.70;3.35;;;33.10;86.20;;;;;;5032104;28;20096;-81
2022/08/04 10:28:38;;;;;;;4.82;3.20;;;33.30;85.80;;;;;;5031824;28;20045;-82
2022/08/04 10:31:10;;;;;;;5.55;3.20;;;33.40;85.00;;;;;;5031824;28;20068;-82
2022/08/04 10:33:48;;;;;;;6.43;3.25;;;33.30;85.20;;;;;;5030332;28;20060;-82
2022/08/04 10:36:20;;;;;;;6.47;3.08;;;33.50;84.70;;;;;;5033528;28;20582;-82
2022/08/04 10:38:56;;;;;;;6.38;2.45;;;33.50;84.70;;;;;;5034643;28;20438;-79
2022/08/04 10:41:59;;;;;;;8.82;3.85;;;33.50;84.60;;;;;;5035686;28;20392;-79
2022/08/04 10:44:47;;;;;;;5.65;2.88;;;33.00;83.00;;;;;;5011742;28;20058;-80
2022/08/04 10:47:17;;;;;;;6.15;2.80;;;32.80;84.80;;;;;;5035872;28;20045;-78
2022/08/04 10:49:47;;;;;;;5.50;2.58;;;32.90;85.50;;;;;;5035542;28;20045;-77
2022/08/04 10:52:36;;;;;;;6.95;2.63;;;32.70;84.90;;;;;;5035784;28;20107;-78
2022/08/04 10:55:10;;;;;;;6.40;2.95;;;32.30;84.70;;;;;;5036034;28;20088;-78
2022/08/04 10:57:40;;;;;;;5.00;2.58;;;31.90;85.00;;;;;;5035418;28;20054;-79
2022/08/04 11:00:15;;;;;;;2.90;1.95;;;31.70;85.50;;;;;;5035332;28;20530;-79
2022/08/04 11:03:04;;;;;;;7.00;2.50;;;31.60;85.40;;;;;;5035643;28;20042;-79
2022/08/04 11:05:34;;;;;;;8.05;2.00;;;31.50;85.30;;;;;;5035626;28;20071;-78
2022/08/04 11:08:10;;;;;;;6.47;2.30;;;31.40;85.90;;;;;;5034318;28;20514;-78
2022/08/04 11:11:01;;;;;;;4.65;1.77;;;31.40;85.20;;;;;;5034118;28;20111;-79
2022/08/04 11:13:39;;;;;;;7.03;2.47;;;31.30;84.50;;;;;;5024288;28;20061;-77
2022/08/04 11:16:12;;;;;;;7.82;1.88;;;31.10;83.60;;;;;;5035308;28;20068;-79
2022/08/04 11:18:58;;;;;;;3.33;2.00;;;31.10;84.90;;;;;;5035098;28;20060;-79
2022/08/04 11:21:38;;;;;;;5.82;2.13;;;31.00;83.70;;;;;;5034877;28;20600;-78
2022/08/04 11:24:44;;;;;;;4.82;1.77;;;31.00;83.80;;;;;;5035497;28;20052;-78
2022/08/04 11:27:21;;;;;;;6.57;2.58;;;31.00;83.60;;;;;;4993006;28;20050;-80
2022/08/04 11:30:07;;;;;;;5.70;2.15;;;30.90;84.80;;;;;;4977444;28;20180;-78
2022/08/04 11:32:42;;;;;;;3.80;1.90;;;30.60;84.10;;;;;;5021772;28;20085;-78
2022/08/04 11:35:15;;;;;;;3.58;2.25;;;30.50;85.80;;;;;;5034630;28;20134;-78
2022/08/04 11:37:48;;;;;;;3.85;2.22;;;30.50;85.90;;;;;;5034585;28;20477;-80
2022/08/04 11:40:27;;;;;;;4.53;1.83;;;30.50;86.30;;;;;;5034901;28;20044;-78
2022/08/04 11:42:58;;;;;;;6.55;2.28;;;30.40;87.90;;;;;;5035025;28;20124;-78
2022/08/04 11:45:32;;;;;;;3.08;2.70;;;30.50;88.40;;;;;;5034666;28;20052;-78
2022/08/04 11:48:04;;;;;;;3.60;2.05;;;30.40;88.90;;;;;;5033921;28;20056;-78
2022/08/04 11:50:37;;;;;;;;;;;30.40;89.30;;;;;;5034659;28;20084;-80
2022/08/04 11:53:04;;;;;;;5.85;3.22;;;30.30;90.30;;;;;;5033676;28;19928;-78
2022/08/04 11:55:31;;;;;;;5.40;2.50;;;30.10;89.70;;;;;;5034598;28;20045;-79
2022/08/04 11:57:57;;;;;;;3.50;2.50;;;29.90;90.10;;;;;;5034187;28;20049;-79
2022/08/04 12:00:26;;;;;;;5.25;1.90;;;29.90;90.50;;;;;;5033375;28;20418;-78
2022/08/04 12:03:42;;;;;;;9.07;2.90;;;29.90;90.80;;;;;;5034137;28;20533;-79
2022/08/04 12:06:24;;;;;;;3.92;1.80;;;29.90;91.20;;;;;;4973000;28;20050;-78
2022/08/04 12:09:18;;;;;;;2.47;1.80;;;30.00;90.60;;;;;;4972874;28;20050;-78
2022/08/04 12:12:06;;;;;;;3.33;1.70;;;29.90;90.30;;;;;;5019913;28;20053;-79
2022/08/04 12:15:11;;;;;;;2.40;1.60;;;29.90;90.40;;;;;;5033421;28;20053;-79
2022/08/04 12:17:52;;;;;;;4.32;1.58;;;29.80;90.70;;;;;;5033743;28;20054;-78
2022/08/04 12:20:21;;;;;;;2.03;1.65;;;29.80;90.80;;;;;;5033674;28;20041;-78
2022/08/04 12:22:50;;;;;;;2.88;2.00;;;29.50;90.40;;;;;;5032923;28;20502;-79
2022/08/04 12:25:39;;;;;;;2.35;1.98;;;29.40;90.90;;;;;;5033995;28;20069;-78
2022/08/04 12:28:12;;;;;;;3.60;1.67;;;29.30;91.00;;;;;;5034024;28;20045;-78
2022/08/04 12:30:48;;;;;;;3.55;1.50;;;29.10;91.10;;;;;;5034139;28;20095;-79
2022/08/04 12:33:25;;;;;;;4.72;2.08;;;29.10;91.50;;;;;;5034135;28;20095;-79
2022/08/04 12:36:07;;;;;;;1.80;1.52;;;28.90;91.00;;;;;;5033455;28;20103;-79
2022/08/04 12:38:33;;;;;;;2.28;1.50;;;28.80;90.90;;;;;;5034378;28;20041;-79
2022/08/04 12:41:03;;;;;;;3.72;1.70;;;28.50;90.90;;;;;;5032443;28;20525;-78
2022/08/04 12:43:37;;;;;;;3.08;1.52;;;28.30;90.80;;;;;;5033943;28;20135;-78
2022/08/04 12:46:05;;;;;;;2.60;1.48;;;28.20;90.80;;;;;;5033221;28;20054;-78
2022/08/04 12:48:34;;;;;;;3.65;1.50;;;28.10;91.10;;;;;;5033301;28;20045;-79
2022/08/04 12:51:00;;;;;;;4.00;1.50;;;28.00;91.40;;;;;;5033060;28;20077;-78
2022/08/04 12:53:31;;;;;;;1.75;1.30;;;27.90;91.30;;;;;;5033077;28;20083;-80
2022/08/04 12:55:58;;;;;;;3.03;1.90;;;27.80;91.40;;;;;;5032196;28;20128;-78
2022/08/04 12:58:26;;;;;;;2.17;1.98;;;27.70;91.40;;;;;;5032921;28;20045;-78
2022/08/04 13:01:02;;;;;;;4.10;1.55;;;27.70;91.70;;;;;;5032980;28;20042;-78
2022/08/04 13:03:36;;;;;;;5.32;1.80;;;27.70;91.70;;;;;;5032793;28;20053;-77
2022/08/04 13:06:03;;;;;;;5.78;1.73;;;27.80;91.80;;;;;;5032384;28;20386;-81
2022/08/04 13:08:34;;;;;;;2.70;1.38;;;27.90;91.60;;;;;;5032753;28;20088;-79
2022/08/04 13:11:01;;;;;;;1.50;1.40;;;27.90;91.30;;;;;;5032554;28;20596;-79
2022/08/04 13:13:30;;;;;;;4.50;2.08;;;27.60;91.00;;;;;;5031776;28;20435;-79
2022/08/04 13:15:58;;;;;;;4.18;1.63;;;28.10;91.20;;;;;;5032108;28;20056;-79
2022/08/04 13:18:26;;;;;;;3.63;1.67;;;28.30;91.40;;;;;;5032370;28;20049;-82
2022/08/04 13:20:52;;;;;;;4.88;1.67;;;28.40;91.10;;;;;;5032561;28;20112;-76
2022/08/04 13:23:18;;;;;;;2.00;1.15;;;28.50;90.80;;;;;;5032542;28;20052;-76
2022/08/04 13:25:47;;;;;;;1.73;1.25;;;28.60;90.80;;;;;;5031989;28;20081;-76
2022/08/04 13:28:23;;;;;;;1.98;1.55;;;28.70;90.20;;;;;;5032297;28;20124;-77
2022/08/04 13:30:58;;;;;;;1.98;1.00;;;28.80;89.20;;;;;;5032871;28;20125;-76
2022/08/04 13:33:30;;;;;;;2.50;1.08;;;29.00;90.10;;;;;;5032290;28;20099;-76
2022/08/04 13:36:00;;;;;;;1.23;1.15;;;29.00;89.90;;;;;;5032435;28;20064;-76
2022/08/04 13:38:27;;;;;;;3.00;2.00;;;29.20;89.40;;;;;;5031613;28;20206;-76